EGGW/LTN METAR and TAF weather

Enter ICAO airport designator
Station Type Date Time Source
EGGW METAR 2019/12/10 03:20 UTC NOAA

EGGW 100320Z AUTO 18006KT 9999 NCD M00/M00 Q1022


Station Type Date Time Source
EGGW Decoded METAR 2019/12/10 03:20 UTC NOAA

Luton Airport , United Kingdom (EGGW) 51-52N 000-22W
Dec 09, 2019 - 10:20 PM EST / 2019.12.10 0320 UTC
Wind: from the S (180 degrees) at 7 MPH (6 KT):0
Visibility: greater than 7 mile(s):0
Temperature: 32 F (0 C)
Windchill: 24 F (-4 C):1
Dew Point: 32 F (0 C)
Relative Humidity: 100%
Pressure (altimeter): 30.18 in. Hg (1022 hPa)
ob: EGGW 100320Z AUTO 18006KT 9999 NCD M00/M00 Q1022
cycle: 3

Station Type Date Time Source
EGGW TAF 2019/12/09 18:15 UTC NOAA

TAF EGGW 091704Z 0918/1018 31010KT 9999 FEW030
BECMG 0918/0921 25006KT PROB30 0923/1005 9000
BECMG 1003/1006 18010KT
TEMPO 1006/1009 18015G25KT
BECMG 1009/1012 19020G30KT BKN010
TEMPO 1010/1018 8000 RA
BECMG 1012/1015 BKN007
TEMPO 1012/1018 19025G40KT PROB40
TEMPO 1016/1018 3000 RADZ +RA BKN004

Example: see airport list